Troy, NY

11:52 PM EDT on October 01, 2014 (GMT -0400)
South Colonie - Cook Park Area | Change Station
CLOSE
Current Station
Personal Weather Station
Location: Colonie, NY
Elevation: 318 ft
Nearby Weather Stations

Elev 318 ft 42.71 °N, 73.84 °W | Updated 4 seconds ago

Overcast
Overcast
59.9 °F
Feels Like 59.9 °F
N
0.0
Wind Variable Wind from West
Gusts 1.6 mph

Today
High -- | Low -- °F
--% Chance of Precip.
Yesterday
High -- | Low -- °F
Precip. -- in
6:51 AM 6:35 PM
First Quarter, 54% visible
Pressure 30.13 in
Visibility 10.0 miles
Clouds Few 3100 ft
Overcast 5000 ft
Dew Point 60 °F
Humidity 99%
Rainfall 0.04 in
Snow Depth Not available.
UV 0 out of 12
Pollen 1.20 out of 12
PM2.5 Good
Flu Activity Not available.
METAR KALB 020251Z 35004KT 10SM -RA FEW031 OVC050 16/14 A3013

More Conditions Fewer Conditions

Pressure 30.13 in
Visibility 10.0 miles
Clouds Few 3100 ft
Overcast 5000 ft
Dew Point 60 °F
Humidity 99%
Rainfall 0.04 in
Snow Depth Not available.
UV 0 out of 12
Pollen 1.20 out of 12
PM2.5 Good
Flu Activity Not available.
METAR KALB 020251Z 35004KT 10SM -RA FEW031 OVC050 16/14 A3013

More Conditions Fewer Conditions

10-Day Weather Forecast

Almanac

Astronomy

Oct. 01, 2014 Rise Set
Actual Time 6:51 AM EDT 6:35 PM EDT
Civil Twilight 6:23 AM EDT 7:03 PM EDT
Nautical Twilight 5:50 AM EDT 7:36 PM EDT
Astronomical Twilight 5:17 AM EDT 8:09 PM EDT
Moon 1:56 PM EDT (10/1) 11:59 PM EDT (10/1)
Length of Visible Light 12h 40m
Length of Day
11h 44m
Tomorrow will be 2m 52s shorter.
First Quarter, 54% of the Moon is Illuminated
Today
First Quarter
Oct 8
Full
Oct 15
Last Quarter
Oct 23
New
Oct 30
First Quarter

Today's Extremes

State Highs State Lows

Community

WunderPhotos

Upload Photos

1,758,170 photos uploaded!

Nearby

Air Quality

  Air Quality AQ Index Pollutant
Yesterday Good
PM2.5
Yesterday Good
OZONE
Current Good
PM2.5
Wednesday Good
PM2.5
Thursday Good
PM2.5

Snow Depth

Station Depth Elevation
No new snow has been reported.

Earthquake Activity

City Distance Mag. Time & Date
No recent earthquake activity has been reported nearby.
Minimum magnitude displayed is 2.5.

Coastal Water Temperatures

Place Temperature
No Stations Reporting

Nearby Weather Stations